createdAt,value
2023-03-19T00:01:48.529Z,8.80
2023-03-19T00:04:16.266Z,7.57
2023-03-19T00:06:43.385Z,7.93
2023-03-19T00:09:09.853Z,8.05
2023-03-19T00:11:36.376Z,8.73
2023-03-19T00:14:02.714Z,8.43
2023-03-19T00:16:29.105Z,7.97
2023-03-19T00:18:55.448Z,8.10
2023-03-19T00:21:24.203Z,7.68
2023-03-19T00:23:52.153Z,8.48
2023-03-19T00:26:18.998Z,8.48
2023-03-19T00:28:45.386Z,8.25
2023-03-19T00:31:15.143Z,9.70
2023-03-19T00:33:42.753Z,9.77
2023-03-19T00:36:10.843Z,11.65
2023-03-19T00:38:37.186Z,9.27
2023-03-19T00:41:05.145Z,7.60
2023-03-19T00:43:32.191Z,10.52
2023-03-19T00:45:58.823Z,9.52
2023-03-19T00:48:25.562Z,9.85
2023-03-19T00:50:52.085Z,8.82
2023-03-19T00:53:19.125Z,8.90
2023-03-19T00:55:46.200Z,9.10
2023-03-19T00:58:12.706Z,9.70
2023-03-19T01:00:39.292Z,9.90
2023-03-19T01:03:06.596Z,10.43
2023-03-19T01:05:36.231Z,9.38
2023-03-19T01:08:02.735Z,8.98
2023-03-19T01:10:32.960Z,9.63
2023-03-19T01:12:59.499Z,8.60
2023-03-19T01:15:26.155Z,11.48
2023-03-19T01:17:52.493Z,8.35
2023-03-19T01:20:19.103Z,8.63
2023-03-19T01:22:46.065Z,7.13
2023-03-19T01:25:14.221Z,9.57
2023-03-19T01:27:40.749Z,8.27
2023-03-19T01:30:07.820Z,8.02
2023-03-19T01:32:34.276Z,9.85
2023-03-19T01:35:01.010Z,7.45
2023-03-19T01:37:28.220Z,9.77
2023-03-19T01:39:54.662Z,11.20
2023-03-19T01:42:21.471Z,8.10
2023-03-19T01:44:47.859Z,12.20
2023-03-19T01:47:38.945Z,7.53
2023-03-19T01:50:06.194Z,9.27
2023-03-19T01:52:34.590Z,8.93
2023-03-19T01:55:05.003Z,8.38
2023-03-19T01:57:32.398Z,10.15
2023-03-19T02:00:01.653Z,10.60
2023-03-19T02:02:35.989Z,10.00
2023-03-19T02:05:12.585Z,8.15
2023-03-19T02:07:42.470Z,10.00
2023-03-19T02:10:12.397Z,8.57
2023-03-19T02:12:38.931Z,8.38
2023-03-19T02:15:07.218Z,9.60
2023-03-19T02:17:34.471Z,9.00
2023-03-19T02:20:08.681Z,9.32
2023-03-19T02:22:41.081Z,10.60
2023-03-19T02:25:16.573Z,10.18
2023-03-19T02:27:43.725Z,9.07
2023-03-19T02:30:32.626Z,10.15
2023-03-19T02:32:59.275Z,9.88
2023-03-19T02:35:30.879Z,11.43
2023-03-19T02:37:57.242Z,10.52
2023-03-19T02:40:29.360Z,8.73
2023-03-19T02:42:55.820Z,11.48
2023-03-19T02:45:24.834Z,9.13
2023-03-19T02:47:51.435Z,9.25
2023-03-19T02:50:17.776Z,7.88
2023-03-19T02:52:44.119Z,10.15
2023-03-19T02:55:10.551Z,9.35
2023-03-19T02:57:36.886Z,12.90
2023-03-19T03:00:05.074Z,9.70
2023-03-19T03:02:31.660Z,9.63
2023-03-19T03:04:58.038Z,12.50
2023-03-19T03:07:24.437Z,9.85
2023-03-19T03:09:51.080Z,11.48
2023-03-19T03:12:17.418Z,10.00
2023-03-19T03:14:43.800Z,10.82
2023-03-19T03:17:10.301Z,9.23
2023-03-19T03:19:36.725Z,9.30
2023-03-19T03:22:03.295Z,11.63
2023-03-19T03:24:29.905Z,10.68
2023-03-19T03:26:56.248Z,11.10
2023-03-19T03:29:22.737Z,10.60
2023-03-19T03:31:49.253Z,10.82
2023-03-19T03:34:15.838Z,11.48
2023-03-19T03:36:42.204Z,11.65
2023-03-19T03:39:08.652Z,10.27
2023-03-19T03:41:35.054Z,9.50
2023-03-19T03:44:01.400Z,12.25
2023-03-19T03:46:28.001Z,11.60
2023-03-19T03:48:54.448Z,11.55
2023-03-19T03:51:22.115Z,9.35
2023-03-19T03:53:48.584Z,8.68
2023-03-19T03:56:15.031Z,10.27
2023-03-19T03:58:41.591Z,11.48
2023-03-19T04:01:08.863Z,9.98
2023-03-19T04:03:35.547Z,10.18
2023-03-19T04:06:01.950Z,12.07
2023-03-19T04:08:28.332Z,10.18
2023-03-19T04:10:54.713Z,8.73
2023-03-19T04:13:21.500Z,8.15
2023-03-19T04:15:48.614Z,10.02
2023-03-19T04:18:15.615Z,9.90
2023-03-19T04:20:41.987Z,7.22
2023-03-19T04:23:08.384Z,10.27
2023-03-19T04:25:34.979Z,9.43
2023-03-19T04:28:01.368Z,8.75
2023-03-19T04:30:28.121Z,11.65
2023-03-19T04:32:54.724Z,9.10
2023-03-19T04:35:21.473Z,10.27
2023-03-19T04:37:48.737Z,10.48
2023-03-19T04:40:16.945Z,8.88
2023-03-19T04:42:44.599Z,8.43
2023-03-19T04:45:11.457Z,10.18
2023-03-19T04:47:37.838Z,10.02
2023-03-19T04:50:05.597Z,8.50
2023-03-19T04:52:33.280Z,11.90
2023-03-19T04:54:59.592Z,8.05
2023-03-19T04:57:25.918Z,7.50
2023-03-19T04:59:52.319Z,8.55
2023-03-19T05:02:19.212Z,8.25
2023-03-19T05:04:45.667Z,7.72
2023-03-19T05:07:12.431Z,6.88
2023-03-19T05:09:39.057Z,10.23
2023-03-19T05:12:05.953Z,7.50
2023-03-19T05:14:32.524Z,8.02
2023-03-19T05:16:58.907Z,8.63
2023-03-19T05:19:25.637Z,8.38
2023-03-19T05:21:52.005Z,7.60
2023-03-19T05:24:18.348Z,9.85
2023-03-19T05:26:44.698Z,7.00
2023-03-19T05:29:11.914Z,8.57
2023-03-19T05:31:38.596Z,7.85
2023-03-19T05:34:05.083Z,9.98
2023-03-19T05:36:31.459Z,8.77
2023-03-19T05:38:57.880Z,10.23
2023-03-19T05:41:24.340Z,7.13
2023-03-19T05:43:51.208Z,7.75
2023-03-19T05:46:17.642Z,9.40
2023-03-19T05:48:44.057Z,13.43
2023-03-19T05:51:11.543Z,7.18
2023-03-19T05:53:38.041Z,8.85
2023-03-19T05:56:04.651Z,8.63
2023-03-19T05:58:31.000Z,7.90
2023-03-19T06:00:57.728Z,8.48
2023-03-19T06:03:24.901Z,8.40
2023-03-19T06:05:51.747Z,8.98
2023-03-19T06:08:18.822Z,10.07
2023-03-19T06:10:45.644Z,7.55
2023-03-19T06:13:12.093Z,10.45
2023-03-19T06:15:38.750Z,7.63
2023-03-19T06:18:05.248Z,8.50
2023-03-19T06:20:32.013Z,8.55
2023-03-19T06:22:58.578Z,7.93
2023-03-19T06:25:24.964Z,7.97
2023-03-19T06:27:51.400Z,6.55
2023-03-19T06:30:17.846Z,6.07
2023-03-19T06:32:44.340Z,8.10
2023-03-19T06:35:11.206Z,7.82
2023-03-19T06:37:37.712Z,9.10
2023-03-19T06:40:05.147Z,7.25
2023-03-19T06:42:31.592Z,7.30
2023-03-19T06:44:57.945Z,8.35
2023-03-19T06:47:24.367Z,6.38
2023-03-19T06:49:51.318Z,8.13
2023-03-19T06:52:17.635Z,7.75
2023-03-19T06:54:44.005Z,7.45
2023-03-19T06:57:10.388Z,9.40
2023-03-19T06:59:36.787Z,6.78
2023-03-19T07:02:03.598Z,7.50
2023-03-19T07:04:30.423Z,5.90
2023-03-19T07:06:56.845Z,7.65
2023-03-19T07:09:23.441Z,7.18
2023-03-19T07:11:49.753Z,6.28
2023-03-19T07:14:16.436Z,8.82
2023-03-19T07:16:42.806Z,7.60
2023-03-19T07:19:09.174Z,6.75
2023-03-19T07:21:35.919Z,7.82
2023-03-19T07:24:02.385Z,5.63
2023-03-19T07:26:28.736Z,6.95
2023-03-19T07:28:55.563Z,6.57
2023-03-19T07:31:22.124Z,7.18
2023-03-19T07:33:48.540Z,6.85
2023-03-19T07:36:14.956Z,6.05
2023-03-19T07:38:41.359Z,7.43
2023-03-19T07:41:07.927Z,5.05
2023-03-19T07:43:34.355Z,7.95
2023-03-19T07:46:01.442Z,8.23
2023-03-19T07:48:27.960Z,8.23
2023-03-19T07:50:54.393Z,11.38
2023-03-19T07:53:20.989Z,7.18
2023-03-19T07:55:47.982Z,6.10
2023-03-19T07:58:14.801Z,7.05
2023-03-19T08:00:41.433Z,9.82
2023-03-19T08:03:08.084Z,6.35
2023-03-19T08:05:34.490Z,6.13
2023-03-19T08:08:01.186Z,6.72
2023-03-19T08:10:27.577Z,6.88
2023-03-19T08:12:54.145Z,6.80
2023-03-19T08:15:20.589Z,10.05
2023-03-19T08:17:47.005Z,7.93
2023-03-19T08:20:18.446Z,8.00
2023-03-19T08:22:49.568Z,7.10
2023-03-19T08:25:15.985Z,6.18
2023-03-19T08:27:42.506Z,10.70
2023-03-19T08:30:09.769Z,7.00
2023-03-19T08:32:37.214Z,6.63
2023-03-19T08:35:04.502Z,7.05
2023-03-19T08:37:30.828Z,7.90
2023-03-19T08:39:57.449Z,5.85
2023-03-19T08:42:23.876Z,4.93
2023-03-19T08:44:50.509Z,9.80
2023-03-19T08:47:17.186Z,7.05
2023-03-19T08:49:43.587Z,8.60
2023-03-19T08:52:10.048Z,7.57
2023-03-19T08:54:36.847Z,12.13
2023-03-19T08:57:03.685Z,6.35
2023-03-19T08:59:32.575Z,6.53
2023-03-19T09:02:00.336Z,7.55
2023-03-19T09:04:26.747Z,8.60
2023-03-19T09:06:53.200Z,7.55
2023-03-19T09:09:21.033Z,9.52
2023-03-19T09:11:47.793Z,10.15
2023-03-19T09:14:16.519Z,9.90
2023-03-19T09:16:43.571Z,8.98
2023-03-19T09:19:10.055Z,8.20
2023-03-19T09:21:36.932Z,10.95
2023-03-19T09:24:04.263Z,9.32
2023-03-19T09:26:31.128Z,9.80
2023-03-19T09:28:58.718Z,10.35
2023-03-19T09:31:27.235Z,10.07
2023-03-19T09:33:54.828Z,8.52
2023-03-19T09:36:21.178Z,10.30
2023-03-19T09:38:47.573Z,9.50
2023-03-19T09:41:26.611Z,9.23
2023-03-19T09:44:05.035Z,16.35
2023-03-19T09:46:36.593Z,10.23
2023-03-19T09:49:12.614Z,9.20
2023-03-19T09:54:31.846Z,8.68
2023-03-19T09:56:58.588Z,7.97
2023-03-19T09:59:27.159Z,7.85
2023-03-19T10:02:21.590Z,7.95
2023-03-19T10:05:22.497Z,8.20
2023-03-19T10:08:03.607Z,10.18
2023-03-19T10:11:08.301Z,10.32
2023-03-19T10:13:43.705Z,9.45
2023-03-19T10:16:19.189Z,9.80
2023-03-19T10:18:49.943Z,9.70
2023-03-19T10:21:48.332Z,10.30
2023-03-19T10:24:37.000Z,10.65
2023-03-19T10:27:15.162Z,12.50
2023-03-19T10:29:42.086Z,11.85
2023-03-19T10:32:28.161Z,11.45
2023-03-19T10:34:58.311Z,12.25
2023-03-19T10:37:28.208Z,13.50
2023-03-19T10:39:57.523Z,12.27
2023-03-19T10:42:32.928Z,12.45
2023-03-19T10:45:05.721Z,14.52
2023-03-19T10:47:39.010Z,12.20
2023-03-19T10:50:06.095Z,12.25
2023-03-19T10:52:35.678Z,11.70
2023-03-19T10:55:14.926Z,11.82
2023-03-19T10:57:43.416Z,12.90
2023-03-19T11:00:20.462Z,12.07
2023-03-19T11:02:49.443Z,12.75
2023-03-19T11:05:24.764Z,12.60
2023-03-19T11:08:03.805Z,12.48
2023-03-19T11:10:33.374Z,11.75
2023-03-19T11:13:05.014Z,12.20
2023-03-19T11:15:38.060Z,10.60
2023-03-19T11:18:29.349Z,12.50
2023-03-19T11:21:05.373Z,11.05
2023-03-19T11:23:40.195Z,11.50
2023-03-19T11:26:07.207Z,12.38
2023-03-19T11:28:37.546Z,13.52
2023-03-19T11:31:41.766Z,14.18
2023-03-19T11:34:33.913Z,14.35
2023-03-19T11:37:03.395Z,14.30
2023-03-19T11:40:08.344Z,14.32
2023-03-19T11:42:37.192Z,14.25
2023-03-19T11:45:09.469Z,10.05
2023-03-19T11:47:47.701Z,8.38
2023-03-19T11:50:36.763Z,8.73
2023-03-19T11:53:18.345Z,7.72
2023-03-19T11:56:17.497Z,8.38
2023-03-19T11:58:58.477Z,8.13
2023-03-19T12:01:46.742Z,7.85
2023-03-19T12:04:25.885Z,7.07
2023-03-19T12:07:05.226Z,8.85
2023-03-19T12:09:49.811Z,7.95
2023-03-19T12:12:27.032Z,9.20
2023-03-19T12:15:14.298Z,9.45
2023-03-19T12:18:12.858Z,9.07
2023-03-19T12:20:55.111Z,9.73
2023-03-19T12:23:59.187Z,8.55
2023-03-19T12:26:50.954Z,7.78
2023-03-19T12:29:27.457Z,7.80
2023-03-19T12:32:25.426Z,7.60
2023-03-19T12:34:55.189Z,8.23
2023-03-19T12:37:42.452Z,8.40
2023-03-19T12:40:13.928Z,9.10
2023-03-19T12:42:42.071Z,8.20
2023-03-19T12:45:27.354Z,7.18
2023-03-19T12:48:01.363Z,7.97
2023-03-19T12:50:31.186Z,7.30
2023-03-19T12:53:00.447Z,7.22
2023-03-19T12:55:42.878Z,8.43
2023-03-19T12:58:34.137Z,6.72
2023-03-19T13:01:09.740Z,6.10
2023-03-19T13:03:52.345Z,5.85
2023-03-19T13:06:43.437Z,7.03
2023-03-19T13:09:31.431Z,6.15
2023-03-19T13:12:10.570Z,5.55
2023-03-19T13:14:55.077Z,5.88
2023-03-19T13:17:46.796Z,5.85
2023-03-19T13:20:47.178Z,5.85
2023-03-19T13:23:22.469Z,7.13
2023-03-19T13:25:50.392Z,8.02
2023-03-19T13:28:28.126Z,6.55
2023-03-19T13:31:08.317Z,6.65
2023-03-19T13:33:37.602Z,5.07
2023-03-19T13:36:14.871Z,5.32
2023-03-19T13:38:46.759Z,6.25
2023-03-19T13:41:39.088Z,5.75
2023-03-19T13:44:29.328Z,6.03
2023-03-19T13:46:55.701Z,5.50
2023-03-19T13:49:26.413Z,7.82
2023-03-19T13:51:59.967Z,6.47
2023-03-19T13:54:38.842Z,5.82
2023-03-19T13:57:06.691Z,5.18
2023-03-19T13:59:33.306Z,5.97
2023-03-19T14:02:01.311Z,7.97
2023-03-19T14:04:37.112Z,5.80
2023-03-19T14:07:15.433Z,6.22
2023-03-19T14:09:46.143Z,6.40
2023-03-19T14:12:15.227Z,6.38
2023-03-19T14:14:49.023Z,5.95
2023-03-19T14:17:20.014Z,5.28
2023-03-19T14:19:46.907Z,4.43
2023-03-19T14:22:16.408Z,5.65
2023-03-19T14:24:57.754Z,4.93
2023-03-19T14:27:32.852Z,5.85
2023-03-19T14:30:09.372Z,4.93
2023-03-19T14:32:42.505Z,5.18
2023-03-19T14:35:16.522Z,5.00
2023-03-19T14:37:49.775Z,4.97
2023-03-19T14:40:20.854Z,4.90
2023-03-19T14:42:55.911Z,5.50
2023-03-19T14:45:49.794Z,4.80
2023-03-19T14:48:58.072Z,3.88
2023-03-19T14:51:51.193Z,3.55
2023-03-19T14:54:42.555Z,3.65
2023-03-19T14:57:16.928Z,3.42
2023-03-19T14:59:43.434Z,4.95
2023-03-19T15:02:19.599Z,3.15
2023-03-19T15:04:48.183Z,3.25
2023-03-19T15:07:28.663Z,3.13
2023-03-19T15:09:55.830Z,3.22
2023-03-19T15:12:27.968Z,3.00
2023-03-19T15:15:09.988Z,2.60
2023-03-19T15:17:39.509Z,2.70
2023-03-19T15:20:21.793Z,3.40
2023-03-19T15:23:01.226Z,3.95
2023-03-19T15:25:28.189Z,3.15
2023-03-19T15:28:13.659Z,3.17
2023-03-19T15:30:53.751Z,3.45
2023-03-19T15:33:39.454Z,3.53
2023-03-19T15:36:24.382Z,4.03
2023-03-19T15:39:02.457Z,3.90
2023-03-19T15:41:32.069Z,4.05
2023-03-19T15:44:00.309Z,3.17
2023-03-19T15:46:33.172Z,3.88
2023-03-19T15:49:10.914Z,3.60
2023-03-19T15:51:38.114Z,4.28
2023-03-19T15:54:05.546Z,5.65
2023-03-19T15:56:32.523Z,3.45
2023-03-19T15:58:59.972Z,4.28
2023-03-19T16:01:27.443Z,4.20
2023-03-19T16:04:01.008Z,3.75
2023-03-19T16:06:33.009Z,3.60
2023-03-19T16:09:22.975Z,4.10
2023-03-19T16:11:49.885Z,3.45
2023-03-19T16:14:29.926Z,4.97
2023-03-19T16:17:02.188Z,3.75
2023-03-19T16:19:36.264Z,3.70
2023-03-19T16:22:12.623Z,4.15
2023-03-19T16:24:42.127Z,4.20
2023-03-19T16:27:13.265Z,6.03
2023-03-19T16:29:41.959Z,4.38
2023-03-19T16:32:19.433Z,5.82
2023-03-19T16:34:49.044Z,4.78
2023-03-19T16:37:40.067Z,5.63
2023-03-19T16:40:12.469Z,5.68
2023-03-19T16:42:39.492Z,5.57
2023-03-19T16:45:14.705Z,7.68
2023-03-19T16:47:42.182Z,4.90
2023-03-19T16:50:09.559Z,7.32
2023-03-19T16:52:38.450Z,5.18
2023-03-19T16:55:12.745Z,5.32
2023-03-19T16:57:39.092Z,4.95
2023-03-19T17:00:06.024Z,4.38
2023-03-19T17:02:32.446Z,4.25
2023-03-19T17:04:58.867Z,5.63
2023-03-19T17:07:25.441Z,3.78
2023-03-19T17:09:51.817Z,4.85
2023-03-19T17:12:18.294Z,5.13
2023-03-19T17:14:44.741Z,4.25
2023-03-19T17:17:19.305Z,5.50
2023-03-19T17:19:46.918Z,4.55
2023-03-19T17:22:14.293Z,4.57
2023-03-19T17:24:40.797Z,3.78
2023-03-19T17:27:07.204Z,3.70
2023-03-19T17:29:33.800Z,3.97
2023-03-19T17:32:04.220Z,4.18
2023-03-19T17:34:31.957Z,5.72
2023-03-19T17:37:03.929Z,5.28
2023-03-19T17:39:31.417Z,6.03
2023-03-19T17:41:57.772Z,8.55
2023-03-19T17:44:24.364Z,5.70
2023-03-19T17:46:53.279Z,8.40
2023-03-19T17:49:32.385Z,7.53
2023-03-19T17:51:59.442Z,5.15
2023-03-19T17:54:27.112Z,6.28
2023-03-19T17:56:54.477Z,7.00
2023-03-19T17:59:20.987Z,6.18
2023-03-19T18:01:47.448Z,7.38
2023-03-19T18:04:17.475Z,7.32
2023-03-19T18:06:54.023Z,9.75
2023-03-19T18:09:28.084Z,8.45
2023-03-19T18:11:55.532Z,7.47
2023-03-19T18:14:21.891Z,8.23
2023-03-19T18:16:48.465Z,7.40
2023-03-19T18:19:28.370Z,7.53
2023-03-19T18:21:54.932Z,7.78
2023-03-19T18:24:21.366Z,8.77
2023-03-19T18:26:47.828Z,9.38
2023-03-19T18:29:14.197Z,8.38
2023-03-19T18:31:44.023Z,8.07
2023-03-19T18:34:13.774Z,10.35
2023-03-19T18:36:41.224Z,9.32
2023-03-19T18:39:13.536Z,8.05
2023-03-19T18:41:40.897Z,8.95
2023-03-19T18:44:08.034Z,12.55
2023-03-19T18:46:36.754Z,13.48
2023-03-19T18:49:07.136Z,14.07
2023-03-19T18:51:33.647Z,14.57
2023-03-19T18:54:00.356Z,19.15
2023-03-19T18:56:30.317Z,18.08
2023-03-19T18:58:58.602Z,14.90
2023-03-19T19:01:25.870Z,15.35
2023-03-19T19:03:52.739Z,15.95
2023-03-19T19:06:28.287Z,11.98
2023-03-19T19:09:00.763Z,13.55
2023-03-19T19:11:27.382Z,12.43
2023-03-19T19:13:57.507Z,15.68
2023-03-19T19:16:28.133Z,17.45
2023-03-19T19:18:54.655Z,13.98
2023-03-19T19:21:21.102Z,16.92
2023-03-19T19:23:47.446Z,22.13
2023-03-19T19:26:25.223Z,25.70
2023-03-19T19:28:52.953Z,28.52
2023-03-19T19:31:31.561Z,28.15
2023-03-19T19:34:00.005Z,30.50
2023-03-19T19:36:27.640Z,27.52
2023-03-19T19:38:55.221Z,31.50
2023-03-19T19:41:24.500Z,30.05
2023-03-19T19:43:53.446Z,31.33
2023-03-19T19:46:22.374Z,28.30
2023-03-19T19:48:49.473Z,29.00
2023-03-19T19:51:27.735Z,28.38
2023-03-19T19:53:54.368Z,28.27
2023-03-19T19:56:23.549Z,27.13
2023-03-19T19:58:53.426Z,29.08
2023-03-19T20:01:22.792Z,27.20
2023-03-19T20:03:50.430Z,30.40
2023-03-19T20:06:17.660Z,29.95
2023-03-19T20:08:44.798Z,26.05
2023-03-19T20:11:23.319Z,28.40
2023-03-19T20:13:55.471Z,27.27
2023-03-19T20:16:24.456Z,26.85
2023-03-19T20:18:54.667Z,30.70
2023-03-19T20:21:22.459Z,30.45
2023-03-19T20:23:53.100Z,27.35
2023-03-19T20:26:22.264Z,25.90
2023-03-19T20:28:49.380Z,26.80
2023-03-19T20:31:19.535Z,25.17
2023-03-19T20:33:45.995Z,26.63
2023-03-19T20:36:15.618Z,27.63
2023-03-19T20:38:42.563Z,28.75
2023-03-19T20:41:21.613Z,25.25
2023-03-19T20:43:49.139Z,27.33
2023-03-19T20:46:16.215Z,25.67
2023-03-19T20:48:42.526Z,30.67
2023-03-19T20:51:18.004Z,27.83
2023-03-19T20:53:44.320Z,27.20
2023-03-19T20:56:15.899Z,28.42
2023-03-19T20:58:42.360Z,27.75
2023-03-19T21:01:09.733Z,28.33
2023-03-19T21:03:36.480Z,26.10
2023-03-19T21:06:06.065Z,26.27
2023-03-19T21:08:47.596Z,26.85
2023-03-19T21:11:19.141Z,24.35
2023-03-19T21:13:46.368Z,27.67
2023-03-19T21:16:17.991Z,26.67
2023-03-19T21:18:44.712Z,26.00
2023-03-19T21:21:13.590Z,25.95
2023-03-19T21:23:45.266Z,26.45
2023-03-19T21:26:17.444Z,27.15
2023-03-19T21:28:45.618Z,26.42
2023-03-19T21:31:20.415Z,25.45
2023-03-19T21:33:48.440Z,28.80
2023-03-19T21:36:15.255Z,28.05
2023-03-19T21:38:41.861Z,26.58
2023-03-19T21:41:22.356Z,26.95
2023-03-19T21:43:56.178Z,26.17
2023-03-19T21:46:26.546Z,25.27
2023-03-19T21:48:57.263Z,26.08
2023-03-19T21:51:24.994Z,25.88
2023-03-19T21:53:51.849Z,26.25
2023-03-19T21:56:22.075Z,24.17
2023-03-19T21:58:51.195Z,27.20
2023-03-19T22:01:24.249Z,28.80
2023-03-19T22:03:55.490Z,25.70
2023-03-19T22:06:22.481Z,27.15
2023-03-19T22:08:48.874Z,28.35
2023-03-19T22:11:24.249Z,29.67
2023-03-19T22:13:50.887Z,30.98
2023-03-19T22:16:20.402Z,27.17
2023-03-19T22:18:47.380Z,26.10
2023-03-19T22:21:16.330Z,28.60
2023-03-19T22:23:42.664Z,27.30
2023-03-19T22:26:33.796Z,29.75
2023-03-19T22:29:19.324Z,26.00
2023-03-19T22:31:48.881Z,24.65
2023-03-19T22:34:17.484Z,29.27
2023-03-19T22:36:44.330Z,27.50
2023-03-19T22:39:10.848Z,31.13
2023-03-19T22:41:40.076Z,31.60
2023-03-19T22:44:19.239Z,29.33
2023-03-19T22:46:46.118Z,28.23
2023-03-19T22:49:15.648Z,27.05
2023-03-19T22:51:43.526Z,30.35
2023-03-19T22:54:11.878Z,29.90
2023-03-19T22:56:38.504Z,25.83
2023-03-19T22:59:05.168Z,28.02
2023-03-19T23:01:36.317Z,25.75
2023-03-19T23:04:24.531Z,23.67
2023-03-19T23:06:52.709Z,25.50
2023-03-19T23:09:29.369Z,29.13
2023-03-19T23:11:57.703Z,30.50
2023-03-19T23:14:31.590Z,30.33
2023-03-19T23:17:01.942Z,30.95
2023-03-19T23:19:31.350Z,29.02
2023-03-19T23:21:59.698Z,30.90
2023-03-19T23:24:27.752Z,29.92
2023-03-19T23:26:55.848Z,31.33
2023-03-19T23:29:34.299Z,26.55
2023-03-19T23:32:00.762Z,30.38
2023-03-19T23:34:28.540Z,29.55
2023-03-19T23:36:56.177Z,31.17
2023-03-19T23:39:23.864Z,33.17
2023-03-19T23:41:54.347Z,30.92
2023-03-19T23:44:21.888Z,31.08
2023-03-19T23:46:50.760Z,34.53
2023-03-19T23:49:24.756Z,28.35
2023-03-19T23:51:51.483Z,32.92
2023-03-19T23:54:28.572Z,30.75
2023-03-19T23:57:01.066Z,32.17
2023-03-19T23:59:31.461Z,27.58
